Time;durP1;ratioP1;P1;durP2;ratioP2;P2;SDS_P1;SDS_P2;PMS_P1;PMS_P2;Temp;Humidity;BMP_temperature;BMP_pressure;BME280_temperature;BME280_humidity;BME280_pressure;Samples;Min_cycle;Max_cycle;Signal;HPM_P1;HPM_P2
2024/04/09 00:01:36;;;;;;;;;;;;;;;17.05;33.94;94490.47;5427759;26;20144;-66
2024/04/09 00:04:02;;;;;;;;;;;;;;;17.05;33.84;94513.84;5430138;26;19973;-66
2024/04/09 00:06:28;;;;;;;;;;;;;;;17.02;32.31;94512.47;5429222;26;19936;-66
2024/04/09 00:08:55;;;;;;;;;;;;;;;16.94;30.92;94510.19;5430458;26;19928;-66
2024/04/09 00:11:24;;;;;;;;;;;;;;;16.94;31.70;94507.50;5429488;26;19941;-65
2024/04/09 00:13:53;;;;;;;;;;;;;;;16.89;32.68;94500.16;5419904;26;19933;-65
2024/04/09 00:16:27;;;;;;;;;;;;;;;16.91;33.52;94506.13;5426282;26;19948;-65
2024/04/09 00:18:55;;;;;;;;;;;;;;;16.81;33.22;94496.03;5424679;26;20001;-65
2024/04/09 00:21:21;;;;;;;;;;;;;;;16.87;29.58;94488.88;5423325;26;20364;-65
2024/04/09 00:23:47;;;;;;;;;;;;;;;16.85;28.42;94488.28;5429535;26;19932;-65
2024/04/09 00:26:13;;;;;;;;;;;;;;;17.14;29.13;94486.31;5426078;26;19968;-65
2024/04/09 00:28:38;;;;;;;;;;;;;;;17.19;29.96;94485.56;5427991;26;19928;-65
2024/04/09 00:31:04;;;;;;;;;;;;;;;17.22;28.70;94477.03;5428771;26;20403;-65
2024/04/09 00:33:29;;;;;;;;;;;;;;;17.36;29.64;94468.56;5426638;26;20176;-65
2024/04/09 00:35:55;;;;;;;;;;;;;;;17.53;28.91;94493.56;5425275;26;20302;-65
2024/04/09 00:38:23;;;;;;;;;;;;;;;17.32;27.32;94486.28;5428028;26;20010;-65
2024/04/09 00:40:49;;;;;;;;;;;;;;;17.18;28.65;94459.75;5416716;26;19928;-65
2024/04/09 00:43:14;;;;;;;;;;;;;;;17.42;29.20;94432.63;5410541;26;20164;-65
2024/04/09 00:45:40;;;;;;;;;;;;;;;17.41;29.20;94447.94;5425126;26;19936;-65
2024/04/09 00:48:05;;;;;;;;;;;;;;;17.46;29.59;94444.50;5424330;26;19936;-65
2024/04/09 00:50:32;;;;;;;;;;;;;;;17.49;30.10;94438.63;5418799;26;20289;-65
2024/04/09 00:52:58;;;;;;;;;;;;;;;17.14;28.22;94434.44;5413839;26;20372;-65
2024/04/09 00:55:26;;;;;;;;;;;;;;;17.38;27.99;94426.91;5409967;26;19969;-65
2024/04/09 00:57:52;;;;;;;;;;;;;;;16.45;27.93;94434.50;5420868;26;19929;-65
2024/04/09 01:00:17;;;;;;;;;;;;;;;17.20;26.51;94430.72;5454685;26;20011;-65
2024/04/09 01:02:43;;;;;;;;;;;;;;;17.54;27.60;94441.38;5417032;26;20212;-65
2024/04/09 01:05:09;;;;;;;;;;;;;;;17.09;26.43;94442.38;5413506;26;20013;-65
2024/04/09 01:07:34;;;;;;;;;;;;;;;17.28;28.59;94437.56;5410833;26;20272;-65
2024/04/09 01:09:59;;;;;;;;;;;;;;;17.70;29.51;94433.47;5418386;26;19940;-65
2024/04/09 01:12:24;;;;;;;;;;;;;;;17.80;27.13;94428.19;5418084;26;20047;-65
2024/04/09 01:14:50;;;;;;;;;;;;;;;17.52;26.41;94438.13;5420343;26;19929;-65
2024/04/09 01:17:15;;;;;;;;;;;;;;;17.24;27.97;94434.53;5416672;26;19928;-66
2024/04/09 01:19:41;;;;;;;;;;;;;;;17.49;27.42;94438.63;5426958;26;19957;-65
2024/04/09 01:22:06;;;;;;;;;;;;;;;17.30;26.95;94431.94;5424258;26;19973;-66
2024/04/09 01:24:32;;;;;;;;;;;;;;;17.64;28.12;94445.25;5428280;26;19929;-65
2024/04/09 01:26:58;;;;;;;;;;;;;;;17.10;28.48;94435.97;5424607;26;20340;-66
2024/04/09 01:29:23;;;;;;;;;;;;;;;16.43;31.02;94428.56;5427131;26;19980;-66
2024/04/09 01:31:48;;;;;;;;;;;;;;;17.16;29.48;94424.22;5426745;26;19929;-66
2024/04/09 01:34:15;;;;;;;;;;;;;;;17.36;27.81;94425.53;5428774;26;19935;-65
2024/04/09 01:36:40;;;;;;;;;;;;;;;17.39;27.54;94417.78;5426383;26;20704;-65
2024/04/09 01:39:09;;;;;;;;;;;;;;;17.31;27.43;94430.88;5426574;26;20033;-66
2024/04/09 01:41:37;;;;;;;;;;;;;;;17.45;27.07;94429.44;5415735;26;20271;-66
2024/04/09 01:44:02;;;;;;;;;;;;;;;17.51;27.03;94431.09;5426889;26;19928;-66
2024/04/09 01:46:28;;;;;;;;;;;;;;;17.03;27.49;94411.91;5426124;26;19991;-65
2024/04/09 01:48:53;;;;;;;;;;;;;;;17.40;28.49;94411.34;5428023;26;19940;-66
2024/04/09 01:51:19;;;;;;;;;;;;;;;17.32;27.52;94403.72;5426684;26;19929;-65
2024/04/09 01:53:44;;;;;;;;;;;;;;;17.08;27.01;94393.19;5425213;26;19928;-65
2024/04/09 01:56:10;;;;;;;;;;;;;;;17.39;28.82;94388.22;5418705;26;20420;-65
2024/04/09 01:58:35;;;;;;;;;;;;;;;16.54;27.37;94385.72;5428461;26;19936;-65
2024/04/09 02:01:04;;;;;;;;;;;;;;;16.83;27.86;94390.97;5417937;26;19940;-65
2024/04/09 02:03:29;;;;;;;;;;;;;;;17.24;27.65;94394.19;5425532;26;20262;-65
2024/04/09 02:05:55;;;;;;;;;;;;;;;17.31;27.41;94398.59;5418395;26;19968;-66
2024/04/09 02:08:20;;;;;;;;;;;;;;;17.30;26.38;94394.28;5424611;26;20030;-66
2024/04/09 02:10:45;;;;;;;;;;;;;;;17.61;26.59;94386.56;5410578;26;20310;-65
2024/04/09 02:13:11;;;;;;;;;;;;;;;17.09;27.68;94393.97;5413345;26;19935;-65
2024/04/09 02:15:36;;;;;;;;;;;;;;;17.32;29.04;94392.97;5402257;26;19937;-65
2024/04/09 02:18:01;;;;;;;;;;;;;;;17.44;26.49;94400.88;5419316;26;19929;-65
2024/04/09 02:20:29;;;;;;;;;;;;;;;16.98;26.63;94391.19;5409719;26;19929;-66
2024/04/09 02:22:54;;;;;;;;;;;;;;;17.12;27.14;94386.28;5411615;26;19940;-65
2024/04/09 02:25:19;;;;;;;;;;;;;;;17.60;27.25;94384.91;5413853;26;20010;-65
2024/04/09 02:27:45;;;;;;;;;;;;;;;17.58;26.26;94389.75;5413671;26;20262;-65
2024/04/09 02:30:10;;;;;;;;;;;;;;;17.68;26.78;94389.88;5408379;26;20054;-65
2024/04/09 02:32:36;;;;;;;;;;;;;;;16.79;28.20;94395.22;5415605;26;20249;-65
2024/04/09 02:35:04;;;;;;;;;;;;;;;17.32;27.12;94398.34;5416765;26;19951;-65
2024/04/09 02:37:29;;;;;;;;;;;;;;;17.73;26.87;94399.84;5419126;26;19977;-65
2024/04/09 02:39:54;;;;;;;;;;;;;;;17.71;27.22;94397.41;5427761;26;19928;-65
2024/04/09 02:42:20;;;;;;;;;;;;;;;17.48;27.04;94412.78;5409003;26;19929;-65
2024/04/09 02:44:46;;;;;;;;;;;;;;;17.88;26.26;94434.22;5419400;26;20537;-66
2024/04/09 02:47:11;;;;;;;;;;;;;;;17.48;27.59;94452.31;5405462;26;20142;-65
2024/04/09 02:49:36;;;;;;;;;;;;;;;15.17;30.09;94472.91;5415909;26;19928;-65
2024/04/09 02:52:02;;;;;;;;;;;;;;;14.21;33.10;94469.31;5414479;26;19936;-65
2024/04/09 02:54:28;;;;;;;;;;;;;;;13.16;37.71;94467.56;5419845;26;19936;-65
2024/04/09 02:56:53;;;;;;;;;;;;;;;12.85;39.43;94488.00;5419787;26;19935;-65
2024/04/09 02:59:18;;;;;;;;;;;;;;;12.28;40.37;94509.16;5421030;26;19932;-65
2024/04/09 03:01:45;;;;;;;;;;;;;;;11.69;43.22;94513.81;5415472;26;20001;-66
2024/04/09 03:04:10;;;;;;;;;;;;;;;11.58;44.19;94515.25;5423063;26;19929;-65
2024/04/09 03:06:36;;;;;;;;;;;;;;;11.41;44.40;94514.91;5417906;26;20357;-65
2024/04/09 03:09:02;;;;;;;;;;;;;;;10.90;46.84;94517.25;5430261;26;19928;-65
2024/04/09 03:11:27;;;;;;;;;;;;;;;11.03;46.34;94517.25;5429951;26;19929;-65
2024/04/09 03:13:53;;;;;;;;;;;;;;;11.36;45.44;94528.88;5430586;26;19929;-65
2024/04/09 03:16:19;;;;;;;;;;;;;;;11.52;44.86;94543.56;5427702;26;19928;-65
2024/04/09 03:18:45;;;;;;;;;;;;;;;12.13;43.93;94554.00;5426870;26;20426;-65
2024/04/09 03:21:10;;;;;;;;;;;;;;;11.25;46.11;94555.13;5427146;26;20067;-65
2024/04/09 03:23:35;;;;;;;;;;;;;;;11.70;45.18;94563.41;5430590;26;19932;-65
2024/04/09 03:26:01;;;;;;;;;;;;;;;11.85;45.17;94565.81;5428225;26;19993;-66
2024/04/09 03:28:26;;;;;;;;;;;;;;;12.05;44.68;94572.91;5427094;26;19928;-65
2024/04/09 03:30:55;;;;;;;;;;;;;;;11.63;45.69;94580.25;5430871;26;19998;-64
2024/04/09 03:33:20;;;;;;;;;;;;;;;11.52;46.33;94563.06;5429348;26;19928;-65
2024/04/09 03:35:49;;;;;;;;;;;;;;;11.45;46.67;94559.59;5424237;26;19940;-65
2024/04/09 03:38:14;;;;;;;;;;;;;;;11.46;46.81;94571.88;5428910;26;19928;-65
2024/04/09 03:40:40;;;;;;;;;;;;;;;11.15;48.48;94572.59;5412099;26;20349;-66
2024/04/09 03:43:05;;;;;;;;;;;;;;;10.69;48.93;94575.84;5422995;26;20336;-66
2024/04/09 03:45:30;;;;;;;;;;;;;;;10.24;50.80;94571.09;5427850;26;19940;-65
2024/04/09 03:47:56;;;;;;;;;;;;;;;9.80;51.90;94581.97;5418516;26;19932;-65
2024/04/09 03:50:21;;;;;;;;;;;;;;;9.78;52.54;94578.69;5423966;26;19929;-65
2024/04/09 03:52:46;;;;;;;;;;;;;;;9.93;52.23;94578.53;5411854;26;20327;-65
2024/04/09 03:55:12;;;;;;;;;;;;;;;9.87;52.27;94594.47;5429573;26;19933;-65
2024/04/09 03:57:38;;;;;;;;;;;;;;;10.21;51.55;94606.06;5428591;26;19928;-65
2024/04/09 04:00:04;;;;;;;;;;;;;;;10.05;51.42;94637.31;5428432;26;20432;-65
2024/04/09 04:02:29;;;;;;;;;;;;;;;9.76;52.10;94641.84;5426373;26;19947;-65
2024/04/09 04:04:55;;;;;;;;;;;;;;;10.01;51.07;94641.38;5424631;26;20366;-65
2024/04/09 04:07:20;;;;;;;;;;;;;;;10.32;50.89;94637.41;5425539;26;20688;-65
2024/04/09 04:09:45;;;;;;;;;;;;;;;10.16;51.19;94640.44;5425725;26;19929;-65
2024/04/09 04:12:11;;;;;;;;;;;;;;;9.54;53.01;94628.66;5424265;26;19929;-65
2024/04/09 04:14:36;;;;;;;;;;;;;;;9.94;52.13;94633.38;5419365;26;19929;-65
2024/04/09 04:17:03;;;;;;;;;;;;;;;10.46;50.61;94630.28;5424634;26;19964;-65
2024/04/09 04:19:28;;;;;;;;;;;;;;;10.71;50.19;94626.22;5423582;26;20195;-65
2024/04/09 04:21:53;;;;;;;;;;;;;;;10.72;49.97;94612.69;5421963;26;19935;-66
2024/04/09 04:24:20;;;;;;;;;;;;;;;10.97;49.81;94606.78;5423467;26;19929;-65
2024/04/09 04:26:45;;;;;;;;;;;;;;;11.00;49.21;94602.88;5419907;26;19929;-65
2024/04/09 04:29:10;;;;;;;;;;;;;;;10.88;49.19;94579.53;5420806;26;19928;-65
2024/04/09 04:31:36;;;;;;;;;;;;;;;10.59;49.92;94581.59;5427926;26;19935;-65
2024/04/09 04:34:02;;;;;;;;;;;;;;;11.24;49.20;94581.97;5427286;26;19928;-65
2024/04/09 04:36:27;;;;;;;;;;;;;;;11.71;46.90;94591.72;5427861;26;20377;-65
2024/04/09 04:38:52;;;;;;;;;;;;;;;12.22;46.33;94589.25;5417295;26;19928;-65
2024/04/09 04:41:17;;;;;;;;;;;;;;;12.38;45.67;94579.94;5426436;26;20346;-65
2024/04/09 04:43:43;;;;;;;;;;;;;;;12.68;45.00;94587.31;5412690;26;20478;-65
2024/04/09 04:46:08;;;;;;;;;;;;;;;12.47;44.63;94585.81;5423795;26;20291;-65
2024/04/09 04:48:33;;;;;;;;;;;;;;;12.75;44.45;94589.97;5421277;26;19935;-65
2024/04/09 04:50:59;;;;;;;;;;;;;;;12.99;43.85;94606.22;5422320;26;19929;-65
2024/04/09 04:53:24;;;;;;;;;;;;;;;13.10;43.67;94600.19;5426375;26;19944;-66
2024/04/09 04:55:49;;;;;;;;;;;;;;;12.86;44.09;94602.63;5425900;26;19935;-66
2024/04/09 04:58:15;;;;;;;;;;;;;;;12.79;44.86;94612.53;5422217;26;20458;-66
2024/04/09 05:00:40;;;;;;;;;;;;;;;12.96;44.44;94612.81;5425633;26;19948;-66
2024/04/09 05:03:05;;;;;;;;;;;;;;;13.00;43.85;94605.22;5425095;26;19994;-66
2024/04/09 05:05:31;;;;;;;;;;;;;;;12.52;44.73;94602.03;5425690;26;20395;-66
2024/04/09 05:07:56;;;;;;;;;;;;;;;12.62;44.70;94606.91;5421662;26;19935;-66
2024/04/09 05:10:21;;;;;;;;;;;;;;;12.65;44.86;94611.81;5418993;26;20045;-66
2024/04/09 05:12:47;;;;;;;;;;;;;;;12.73;44.53;94614.22;5421395;26;19929;-66
2024/04/09 05:15:15;;;;;;;;;;;;;;;12.82;44.46;94622.78;5427525;26;19929;-66
2024/04/09 05:17:41;;;;;;;;;;;;;;;12.89;44.14;94639.56;5422455;26;19954;-66
2024/04/09 05:20:12;;;;;;;;;;;;;;;12.89;44.19;94636.88;5424804;26;20086;-66
2024/04/09 05:22:38;;;;;;;;;;;;;;;13.17;43.79;94659.75;5411338;26;19936;-66
2024/04/09 05:25:04;;;;;;;;;;;;;;;13.28;43.87;94665.41;5427147;26;19976;-66
2024/04/09 05:27:29;;;;;;;;;;;;;;;13.25;43.17;94655.97;5413487;26;19929;-66
2024/04/09 05:29:54;;;;;;;;;;;;;;;13.41;42.90;94645.75;5416483;26;20394;-66
2024/04/09 05:32:20;;;;;;;;;;;;;;;13.33;42.55;94641.53;5420958;26;20002;-66
2024/04/09 05:34:45;;;;;;;;;;;;;;;12.74;43.84;94642.53;5423944;26;19944;-66
2024/04/09 05:37:11;;;;;;;;;;;;;;;12.31;45.41;94641.38;5421095;26;20027;-66
2024/04/09 05:39:36;;;;;;;;;;;;;;;12.20;45.48;94660.72;5411702;26;20152;-66
2024/04/09 05:42:01;;;;;;;;;;;;;;;11.88;46.63;94648.91;5424386;26;19929;-66
2024/04/09 05:44:26;;;;;;;;;;;;;;;12.41;46.09;94670.28;5414001;26;19968;-66
2024/04/09 05:46:52;;;;;;;;;;;;;;;12.19;46.02;94669.72;5423118;26;19937;-66
2024/04/09 05:49:21;;;;;;;;;;;;;;;12.19;45.97;94673.22;5427270;26;20362;-66
2024/04/09 05:51:47;;;;;;;;;;;;;;;12.06;46.23;94674.09;5426734;26;19960;-66
2024/04/09 05:54:12;;;;;;;;;;;;;;;11.75;47.19;94681.75;5419964;26;19935;-66
2024/04/09 05:56:37;;;;;;;;;;;;;;;11.73;48.04;94688.31;5419257;26;19940;-66
2024/04/09 05:59:02;;;;;;;;;;;;;;;11.88;47.99;94688.91;5415326;26;19933;-66
2024/04/09 06:01:28;;;;;;;;;;;;;;;11.75;48.37;94671.09;5419807;26;20002;-66
2024/04/09 06:03:53;;;;;;;;;;;;;;;11.89;48.66;94668.38;5424834;26;19985;-65
2024/04/09 06:06:19;;;;;;;;;;;;;;;11.94;47.96;94673.91;5424373;26;19936;-65
2024/04/09 06:08:44;;;;;;;;;;;;;;;11.67;49.17;94683.81;5421691;26;20436;-65
2024/04/09 06:11:09;;;;;;;;;;;;;;;11.48;49.77;94691.63;5417300;26;20695;-65
2024/04/09 06:13:34;;;;;;;;;;;;;;;10.94;51.50;94696.91;5416873;26;20727;-67
2024/04/09 06:16:00;;;;;;;;;;;;;;;10.54;53.03;94698.44;5422479;26;20009;-65
2024/04/09 06:18:25;;;;;;;;;;;;;;;10.51;53.42;94693.56;5420915;26;19929;-66
2024/04/09 06:20:51;;;;;;;;;;;;;;;10.46;53.09;94712.78;5421193;26;21637;-65
2024/04/09 06:23:16;;;;;;;;;;;;;;;10.18;54.14;94729.66;5420680;26;20385;-65
2024/04/09 06:25:41;;;;;;;;;;;;;;;10.21;54.77;94739.06;5418267;26;20190;-65
2024/04/09 06:28:07;;;;;;;;;;;;;;;9.96;54.99;94743.00;5417996;26;20124;-65
2024/04/09 06:30:34;;;;;;;;;;;;;;;8.65;58.97;94727.19;5420129;26;19936;-64
2024/04/09 06:32:59;;;;;;;;;;;;;;;8.40;60.14;94726.69;5414881;26;19936;-64
2024/04/09 06:35:25;;;;;;;;;;;;;;;8.50;60.71;94731.72;5428438;26;19928;-65
2024/04/09 06:37:50;;;;;;;;;;;;;;;8.50;60.65;94729.06;5428266;26;19928;-66
2024/04/09 06:40:15;;;;;;;;;;;;;;;8.63;60.39;94731.00;5423753;26;19992;-65
2024/04/09 06:42:40;;;;;;;;;;;;;;;8.30;61.21;94746.38;5415347;26;19936;-65
2024/04/09 06:45:06;;;;;;;;;;;;;;;8.85;60.58;94745.16;5425052;26;20687;-65
2024/04/09 06:47:31;;;;;;;;;;;;;;;9.25;59.22;94755.34;5427899;26;20012;-66
2024/04/09 06:49:58;;;;;;;;;;;;;;;9.05;59.33;94734.75;5428196;26;20371;-65
2024/04/09 06:52:23;;;;;;;;;;;;;;;9.30;59.21;94750.31;5421376;26;19937;-65
2024/04/09 06:54:48;;;;;;;;;;;;;;;9.06;59.94;94757.66;5424385;26;20381;-64
2024/04/09 06:57:13;;;;;;;;;;;;;;;8.35;62.26;94735.22;5415286;26;19955;-65
2024/04/09 06:59:39;;;;;;;;;;;;;;;8.31;63.35;94741.91;5418082;26;19995;-64
2024/04/09 07:02:04;;;;;;;;;;;;;;;8.93;61.63;94760.13;5420585;26;20453;-65
2024/04/09 07:04:30;;;;;;;;;;;;;;;8.68;62.34;94757.84;5421951;26;19937;-65
2024/04/09 07:06:55;;;;;;;;;;;;;;;8.53;62.39;94760.50;5429647;26;20256;-65
2024/04/09 07:09:22;;;;;;;;;;;;;;;8.39;63.15;94772.78;5419416;26;19936;-67
2024/04/09 07:11:47;;;;;;;;;;;;;;;8.40;63.61;94782.41;5430351;26;20258;-68
2024/04/09 07:14:13;;;;;;;;;;;;;;;8.81;62.16;94787.16;5426328;26;19929;-68
2024/04/09 07:16:47;;;;;;;;;;;;;;;9.07;60.99;94788.50;5429391;26;20412;-66
2024/04/09 07:19:12;;;;;;;;;;;;;;;8.92;60.97;94798.31;5430473;26;20107;-66
2024/04/09 07:21:38;;;;;;;;;;;;;;;8.95;61.58;94801.44;5430146;26;19946;-66
2024/04/09 07:24:03;;;;;;;;;;;;;;;8.75;62.07;94803.84;5423604;26;19929;-66
2024/04/09 07:26:28;;;;;;;;;;;;;;;8.76;62.41;94792.22;5424880;26;19943;-66
2024/04/09 07:28:53;;;;;;;;;;;;;;;8.26;64.33;94763.66;5426412;26;19928;-66
2024/04/09 07:31:19;;;;;;;;;;;;;;;8.51;62.85;94757.22;5429659;26;19929;-66
2024/04/09 07:33:47;;;;;;;;;;;;;;;8.72;62.71;94756.44;5423537;26;19968;-65
2024/04/09 07:36:12;;;;;;;;;;;;;;;8.59;64.87;94758.94;5419389;26;19936;-66
2024/04/09 07:38:38;;;;;;;;;;;;;;;9.01;64.49;94778.63;5414074;26;19952;-65
2024/04/09 07:41:04;;;;;;;;;;;;;;;9.11;63.49;94790.78;5416839;26;20327;-65
2024/04/09 07:43:30;;;;;;;;;;;;;;;9.15;63.32;94797.34;5417558;26;19928;-66
2024/04/09 07:45:56;;;;;;;;;;;;;;;8.84;64.02;94793.91;5423742;26;19928;-66
2024/04/09 07:48:21;;;;;;;;;;;;;;;9.54;63.23;94813.84;5423051;26;19977;-65
2024/04/09 07:50:46;;;;;;;;;;;;;;;10.00;60.17;94811.75;5416293;26;20298;-65
2024/04/09 07:53:12;;;;;;;;;;;;;;;10.45;59.05;94804.28;5419738;26;19936;-65
2024/04/09 07:55:37;;;;;;;;;;;;;;;9.29;63.03;94812.38;5422805;26;19968;-65
2024/04/09 07:58:03;;;;;;;;;;;;;;;8.59;64.54;94819.97;5417882;26;20301;-65
2024/04/09 08:00:28;;;;;;;;;;;;;;;8.52;64.83;94823.38;5428049;26;19963;-65
2024/04/09 08:02:53;;;;;;;;;;;;;;;7.37;70.87;94837.53;5428325;26;20467;-65
2024/04/09 08:05:19;;;;;;;;;;;;;;;6.57;73.63;94836.81;5425320;26;19932;-65
2024/04/09 08:07:44;;;;;;;;;;;;;;;6.77;72.57;94832.75;5430017;26;19928;-65
2024/04/09 08:10:12;;;;;;;;;;;;;;;5.85;75.64;94826.91;5426274;26;19936;-65
2024/04/09 08:12:41;;;;;;;;;;;;;;;5.86;76.73;94828.56;5423298;26;20192;-65
2024/04/09 08:15:08;;;;;;;;;;;;;;;5.82;77.44;94842.28;5415634;26;20381;-65
2024/04/09 08:17:34;;;;;;;;;;;;;;;5.93;78.55;94847.22;5421611;26;20414;-65
2024/04/09 08:19:59;;;;;;;;;;;;;;;5.34;78.42;94864.88;5414803;26;19936;-65
2024/04/09 08:22:24;;;;;;;;;;;;;;;5.39;76.91;94874.97;5423736;26;19929;-65
2024/04/09 08:24:49;;;;;;;;;;;;;;;5.35;77.44;94886.84;5417623;26;20507;-65
2024/04/09 08:27:15;;;;;;;;;;;;;;;5.24;77.40;94909.09;5424543;26;19939;-65
2024/04/09 08:29:40;;;;;;;;;;;;;;;5.14;76.43;94909.22;5427462;26;19929;-65
2024/04/09 08:32:05;;;;;;;;;;;;;;;4.68;75.65;94920.91;5429143;26;19934;-65
2024/04/09 08:34:30;;;;;;;;;;;;;;;4.93;75.23;94931.56;5426662;26;20224;-66
2024/04/09 08:36:56;;;;;;;;;;;;;;;4.44;74.07;94938.28;5420053;26;20512;-65
2024/04/09 08:39:21;;;;;;;;;;;;;;;4.53;73.57;94952.31;5426293;26;19944;-66
2024/04/09 08:41:46;;;;;;;;;;;;;;;4.71;72.02;94961.97;5423563;26;19936;-66
2024/04/09 08:44:12;;;;;;;;;;;;;;;4.40;72.21;94952.75;5424085;26;20067;-66
2024/04/09 08:46:37;;;;;;;;;;;;;;;4.18;72.54;94944.38;5426048;26;19928;-66
2024/04/09 08:49:03;;;;;;;;;;;;;;;4.14;71.85;94966.72;5429031;26;19953;-66
2024/04/09 08:51:28;;;;;;;;;;;;;;;4.03;71.82;94983.63;5417860;26;19929;-66
2024/04/09 08:53:53;;;;;;;;;;;;;;;4.29;70.98;94989.91;5414663;26;20403;-66
2024/04/09 08:56:19;;;;;;;;;;;;;;;4.61;69.98;95000.78;5407525;26;19929;-66
2024/04/09 08:58:45;;;;;;;;;;;;;;;4.43;69.46;95020.13;5406686;26;20274;-66
2024/04/09 09:01:12;;;;;;;;;;;;;;;4.37;68.35;95028.66;5410217;26;19935;-66
2024/04/09 09:03:38;;;;;;;;;;;;;;;5.09;66.97;95046.09;5420930;26;20508;-66
2024/04/09 09:06:04;;;;;;;;;;;;;;;4.59;66.25;95053.69;5429113;26;19944;-66
2024/04/09 09:08:42;;;;;;;;;;;;;;;4.00;66.04;95065.56;5424661;26;20708;-66
2024/04/09 09:11:07;;;;;;;;;;;;;;;3.70;66.80;95083.38;5428960;26;19936;-66
2024/04/09 09:13:33;;;;;;;;;;;;;;;3.81;66.22;95084.97;5428132;26;20390;-66
2024/04/09 09:15:58;;;;;;;;;;;;;;;4.42;64.63;95092.28;5419651;26;19929;-66
2024/04/09 09:18:24;;;;;;;;;;;;;;;4.76;63.92;95090.72;5425163;26;19935;-66
2024/04/09 09:21:01;;;;;;;;;;;;;;;4.79;64.28;95074.56;5427775;26;19928;-66
2024/04/09 09:23:26;;;;;;;;;;;;;;;5.05;62.87;95055.28;5428150;26;19935;-66
2024/04/09 09:25:52;;;;;;;;;;;;;;;5.26;62.72;95043.53;5422930;26;19929;-67
2024/04/09 09:28:20;;;;;;;;;;;;;;;5.20;62.63;95047.63;5422343;26;20081;-66
2024/04/09 09:30:45;;;;;;;;;;;;;;;4.94;62.96;95036.09;5423406;26;19928;-66
2024/04/09 09:33:18;;;;;;;;;;;;;;;4.90;63.90;95032.13;5427072;26;20436;-67
2024/04/09 09:35:45;;;;;;;;;;;;;;;4.86;63.57;95046.59;5427906;26;20281;-66
2024/04/09 09:38:11;;;;;;;;;;;;;;;5.11;65.02;95028.31;5427429;26;20360;-67
2024/04/09 09:40:37;;;;;;;;;;;;;;;5.06;65.01;95031.41;5418214;26;20385;-67
2024/04/09 09:43:02;;;;;;;;;;;;;;;4.65;65.75;95050.44;5420000;26;19928;-67
2024/04/09 09:45:27;;;;;;;;;;;;;;;5.28;63.92;95068.81;5424609;26;20247;-66
2024/04/09 09:47:53;;;;;;;;;;;;;;;4.84;66.28;95069.69;5427580;26;20192;-66
2024/04/09 09:50:18;;;;;;;;;;;;;;;4.90;67.18;95066.41;5422349;26;19935;-67
2024/04/09 09:52:44;;;;;;;;;;;;;;;5.42;64.77;95061.25;5422618;26;19956;-66
2024/04/09 09:55:09;;;;;;;;;;;;;;;5.05;66.89;95056.13;5419473;26;19936;-66
2024/04/09 09:57:37;;;;;;;;;;;;;;;4.82;70.29;95080.38;5423300;26;20439;-67
2024/04/09 10:00:09;;;;;;;;;;;;;;;4.61;68.57;95101.81;5425479;26;19929;-66
2024/04/09 10:02:34;;;;;;;;;;;;;;;4.54;68.71;95085.81;5428018;26;19997;-66
2024/04/09 10:05:01;;;;;;;;;;;;;;;4.38;70.42;95094.41;5424911;26;20308;-66
2024/04/09 10:07:27;;;;;;;;;;;;;;;3.94;71.29;95109.16;5427942;26;19928;-67
2024/04/09 10:09:52;;;;;;;;;;;;;;;3.99;70.86;95089.44;5427248;26;20314;-66
2024/04/09 10:12:18;;;;;;;;;;;;;;;4.78;68.79;95096.66;5418727;26;19929;-66
2024/04/09 10:14:43;;;;;;;;;;;;;;;3.85;69.79;95098.66;5424295;26;19936;-67
2024/04/09 10:17:11;;;;;;;;;;;;;;;4.21;68.83;95097.88;5430920;26;19936;-67
2024/04/09 10:19:37;;;;;;;;;;;;;;;4.30;68.37;95096.97;5426626;26;19928;-66
2024/04/09 10:22:03;;;;;;;;;;;;;;;4.51;67.18;95101.06;5425225;26;19941;-67
2024/04/09 10:24:29;;;;;;;;;;;;;;;4.14;66.49;95123.97;5430572;26;19994;-66
2024/04/09 10:26:54;;;;;;;;;;;;;;;5.52;63.77;95138.53;5427850;26;19943;-66
2024/04/09 10:29:21;;;;;;;;;;;;;;;5.80;61.69;95153.34;5431133;26;19936;-67
2024/04/09 10:31:47;;;;;;;;;;;;;;;5.26;63.17;95163.13;5424724;26;20516;-66
2024/04/09 10:34:21;;;;;;;;;;;;;;;5.19;64.24;95157.66;5421759;26;19929;-67
2024/04/09 10:36:48;;;;;;;;;;;;;;;4.33;63.64;95157.28;5423754;26;19994;-67
2024/04/09 10:39:14;;;;;;;;;;;;;;;5.08;61.54;95171.09;5427071;26;19951;-67
2024/04/09 10:41:40;;;;;;;;;;;;;;;5.79;60.93;95186.03;5412344;26;19933;-67
2024/04/09 10:44:05;;;;;;;;;;;;;;;4.70;61.81;95195.03;5412688;26;19934;-67
2024/04/09 10:46:30;;;;;;;;;;;;;;;3.47;66.42;95233.78;5421121;26;19929;-66
2024/04/09 10:48:55;;;;;;;;;;;;;;;2.55;67.84;95199.97;5429591;26;20261;-66
2024/04/09 10:51:20;;;;;;;;;;;;;;;2.18;71.16;95204.06;5426778;26;20423;-66
2024/04/09 10:53:46;;;;;;;;;;;;;;;1.88;69.27;95209.25;5423183;26;19940;-66
2024/04/09 10:56:11;;;;;;;;;;;;;;;1.92;69.52;95204.56;5427475;26;20420;-67
2024/04/09 10:58:36;;;;;;;;;;;;;;;2.11;71.16;95201.16;5424677;26;19928;-66
2024/04/09 11:01:02;;;;;;;;;;;;;;;2.43;70.19;95204.53;5424584;26;20019;-66
2024/04/09 11:03:27;;;;;;;;;;;;;;;2.77;66.88;95188.34;5421302;26;20295;-65
2024/04/09 11:05:53;;;;;;;;;;;;;;;3.06;67.89;95189.25;5415663;26;19939;-66
2024/04/09 11:08:30;;;;;;;;;;;;;;;3.13;67.25;95192.19;5426249;26;20289;-65
2024/04/09 11:10:56;;;;;;;;;;;;;;;2.93;66.52;95196.63;5420035;26;19967;-66
2024/04/09 11:13:21;;;;;;;;;;;;;;;4.07;63.44;95192.25;5427607;26;20419;-65
2024/04/09 11:15:47;;;;;;;;;;;;;;;3.63;62.02;95180.53;5423649;26;19943;-66
2024/04/09 11:18:19;;;;;;;;;;;;;;;4.01;63.06;95206.03;5422834;26;20002;-66
2024/04/09 11:20:49;;;;;;;;;;;;;;;4.64;62.70;95203.53;5423441;26;20314;-65
2024/04/09 11:23:14;;;;;;;;;;;;;;;4.74;60.31;95201.66;5430243;26;19964;-66
2024/04/09 11:25:39;;;;;;;;;;;;;;;4.61;62.37;95202.03;5427652;26;19940;-66
2024/04/09 11:28:05;;;;;;;;;;;;;;;5.50;59.08;95198.59;5422708;26;19929;-65
2024/04/09 11:30:32;;;;;;;;;;;;;;;5.44;58.87;95186.84;5427928;26;19937;-67
2024/04/09 11:32:57;;;;;;;;;;;;;;;4.96;59.67;95189.78;5422846;26;19944;-67
2024/04/09 11:35:23;;;;;;;;;;;;;;;5.68;59.15;95187.13;5426211;26;19944;-67
2024/04/09 11:37:50;;;;;;;;;;;;;;;6.49;57.51;95211.38;5429708;26;20146;-67
2024/04/09 11:40:15;;;;;;;;;;;;;;;4.26;63.04;95209.78;5414839;26;20498;-67
2024/04/09 11:42:42;;;;;;;;;;;;;;;5.10;60.90;95195.53;5428074;26;19928;-67
2024/04/09 11:45:07;;;;;;;;;;;;;;;5.59;60.82;95205.59;5429177;26;20316;-67
2024/04/09 11:47:33;;;;;;;;;;;;;;;6.15;57.58;95209.59;5429345;26;19965;-67
2024/04/09 11:49:58;;;;;;;;;;;;;;;4.57;58.70;95217.34;5428457;26;20002;-67
2024/04/09 11:52:23;;;;;;;;;;;;;;;5.71;57.78;95208.78;5429431;26;19929;-67
2024/04/09 11:54:48;;;;;;;;;;;;;;;5.99;56.56;95205.91;5430514;26;20372;-67
2024/04/09 11:57:14;;;;;;;;;;;;;;;6.72;54.64;95194.06;5429524;26;19929;-66
2024/04/09 11:59:39;;;;;;;;;;;;;;;5.73;55.14;95204.16;5427615;26;20226;-66
2024/04/09 12:02:04;;;;;;;;;;;;;;;6.38;53.65;95199.28;5411061;26;20002;-67
2024/04/09 12:04:29;;;;;;;;;;;;;;;4.24;61.49;95216.13;5422038;26;19928;-67
2024/04/09 12:06:55;;;;;;;;;;;;;;;4.54;58.35;95207.09;5411371;26;19936;-66
2024/04/09 12:09:20;;;;;;;;;;;;;;;5.55;57.68;95208.69;5420851;26;19984;-66
2024/04/09 12:11:45;;;;;;;;;;;;;;;5.00;58.34;95226.44;5411977;26;20069;-66
2024/04/09 12:14:10;;;;;;;;;;;;;;;6.23;55.43;95222.84;5412672;26;19929;-66
2024/04/09 12:16:42;;;;;;;;;;;;;;;5.24;55.81;95233.75;5428221;26;20592;-66
2024/04/09 12:19:07;;;;;;;;;;;;;;;4.92;57.02;95243.00;5429931;26;20423;-66
2024/04/09 12:21:33;;;;;;;;;;;;;;;5.93;55.16;95242.72;5428730;26;19929;-66
2024/04/09 12:23:58;;;;;;;;;;;;;;;5.77;53.26;95246.94;5429924;26;20557;-66
2024/04/09 12:26:23;;;;;;;;;;;;;;;5.35;54.64;95230.84;5424026;26;19968;-66
2024/04/09 12:28:48;;;;;;;;;;;;;;;4.56;57.48;95226.19;5426499;26;19963;-66
2024/04/09 12:31:14;;;;;;;;;;;;;;;5.06;55.56;95225.84;5424584;26;19936;-66
2024/04/09 12:33:39;;;;;;;;;;;;;;;5.13;54.56;95232.16;5429717;26;19932;-67
2024/04/09 12:36:04;;;;;;;;;;;;;;;4.90;55.46;95221.25;5426773;26;19940;-66
2024/04/09 12:38:30;;;;;;;;;;;;;;;6.07;53.00;95239.50;5412747;26;20047;-66
2024/04/09 12:40:55;;;;;;;;;;;;;;;5.81;51.11;95236.88;5410882;26;20291;-66
2024/04/09 12:43:21;;;;;;;;;;;;;;;5.50;53.29;95242.66;5416808;26;20251;-66
2024/04/09 12:45:47;;;;;;;;;;;;;;;6.91;50.47;95251.16;5418417;26;19932;-66